Seacod — DDPW — position and weather

sailwx.info

Track history (hours):
 
Tides and Currents Weather Stations Pressure Air Temp Water Temp Dewpoint Dewpoint Depression Visibility Wind Speed Wind Dir Waves Ship Positions

Seacod

Last reported at 2016-Dec-06 13:24 UTC. Time now 2016-Dec-06 14:12 UTC.
Position N 55°35' E 015°03'.

Length 188 m; draft 9.5 m.

Type: Ship. MMSI: 218019000.

Date/timePositionNaut miles runAvg speedWind from/ knotsBaromVisibWave heightAir tempDewpointWater temp
2016-Dec-06 13:24N 55°35' E 015°03'36013.7
2016-Dec-05 11:08N 59°37' E 023°19'812.9
2016-Dec-05 10:32N 59°39' E 023°34'4112.4
2016-Dec-05 07:15N 59°49' E 024°52'812.1
2016-Dec-05 06:33N 59°51' E 025°08'1211.8
2016-Dec-05 05:33N 59°54' E 025°31'2511.6
2016-Dec-05 03:26N 59°59' E 026°19'1011.4
2016-Dec-05 02:33N 60°01' E 026°39'2510.8
2016-Dec-05 00:17N 60°07' E 027°27'811.5
2016-Dec-04 23:33N 60°11' E 027°42'1110.9
2016-Dec-04 22:33N 60°10' E 028°03'1211.7
2016-Dec-04 21:33N 60°08' E 028°26'1211.2
2016-Dec-04 20:30N 60°13' E 028°47'4 0.2
2016-Dec-03 21:33N 60°18' E 028°45'6 5.8
2016-Dec-03 20:32N 60°12' E 028°45'5 5.0
2016-Dec-03 19:33N 60°08' E 028°40'6 6.2
2016-Dec-03 18:33N 60°03' E 028°31'3 2.9
2016-Dec-03 17:31N 60°01' E 028°27'0 0.0
2016-Dec-03 16:26N 60°01' E 028°27'0 0.0
2016-Dec-03 15:28N 60°01' E 028°27'0 0.0
2016-Dec-03 14:29N 60°01' E 028°27'0 0.0
2016-Dec-03 13:31N 60°01' E 028°27'0 0.0
2016-Dec-03 12:33N 60°01' E 028°27'0 0.0
2016-Dec-03 11:27N 60°01' E 028°27'0 0.0
2016-Dec-03 10:18N 60°01' E 028°27'0 0.0
2016-Dec-03 09:33N 60°01' E 028°27'0 0.0
2016-Dec-03 08:26N 60°01' E 028°27'0 0.0
2016-Dec-03 07:26N 60°01' E 028°27'0 0.0
2016-Dec-03 06:26N 60°01' E 028°27'0 0.0
2016-Dec-03 05:31N 60°01' E 028°27'0 0.0
2016-Dec-03 04:24N 60°01' E 028°27'0 0.0
2016-Dec-03 03:24N 60°01' E 028°27'0 0.0
2016-Dec-03 02:25N 60°01' E 028°27'0 0.0
2016-Dec-03 01:23N 60°01' E 028°27'0 0.0
2016-Dec-03 00:32N 60°01' E 028°27'0 0.0
2016-Dec-02 23:32N 60°01' E 028°27'0 0.0
2016-Dec-02 22:31N 60°01' E 028°27'0 0.0
2016-Dec-02 21:28N 60°01' E 028°27'0 0.0
2016-Dec-02 20:32N 60°01' E 028°27'0 0.0
2016-Dec-02 19:33N 60°01' E 028°27'0 0.0
2016-Dec-02 18:31N 60°01' E 028°27'0 0.0
2016-Dec-02 17:31N 60°01' E 028°27'0 0.0
2016-Dec-02 16:31N 60°01' E 028°27'0 0.0
2016-Dec-02 15:31N 60°01' E 028°27'0 0.0
2016-Dec-02 14:33N 60°01' E 028°27'0 0.0
2016-Dec-02 13:28N 60°01' E 028°27'0 0.0
2016-Dec-02 12:26N 60°01' E 028°27'0 0.0
2016-Dec-02 11:27N 60°01' E 028°27'0 0.0
2016-Dec-02 10:27N 60°01' E 028°27'0 0.0
2016-Dec-02 09:25N 60°01' E 028°27'0 0.0
2016-Dec-02 08:30N 60°01' E 028°27'0 0.0
2016-Dec-02 07:23N 60°01' E 028°27'0 0.0
2016-Dec-02 06:30N 60°01' E 028°27'0 0.0
2016-Dec-02 05:29N 60°01' E 028°27'0 0.0
2016-Dec-02 04:32N 60°01' E 028°27'0 0.0
2016-Dec-02 03:25N 60°01' E 028°27'0 0.0
2016-Dec-02 02:27N 60°01' E 028°27'0 0.0
2016-Dec-02 01:27N 60°01' E 028°27'0 0.0
2016-Dec-02 00:24N 60°01' E 028°27'0 0.1
2016-Dec-01 23:33N 60°01' E 028°27'0 0.0
2016-Dec-01 22:33N 60°01' E 028°27'0 0.0
2016-Dec-01 21:32N 60°01' E 028°27'0 0.0
2016-Dec-01 20:32N 60°01' E 028°27'0 0.0
2016-Dec-01 19:23N 60°01' E 028°27'0 0.0
2016-Dec-01 18:33N 60°01' E 028°27'0 0.0
2016-Dec-01 17:19N 60°01' E 028°27'0 0.0
2016-Dec-01 16:29N 60°01' E 028°27'0 0.0
2016-Dec-01 15:33N 60°01' E 028°27'0 0.0
2016-Dec-01 14:33N 60°01' E 028°27'0 0.0
2016-Dec-01 13:27N 60°01' E 028°27'0 0.0
2016-Dec-01 12:31N 60°01' E 028°27'0 0.0
2016-Dec-01 11:31N 60°01' E 028°27'0 0.0
2016-Dec-01 10:25N 60°01' E 028°27'0 0.0
2016-Dec-01 09:31N 60°01' E 028°27'0 0.0
2016-Dec-01 08:26N 60°01' E 028°27'0 0.0
2016-Dec-01 07:26N 60°01' E 028°27'0 0.0
2016-Dec-01 06:26N 60°01' E 028°27'0 0.0
2016-Dec-01 05:33N 60°01' E 028°27'0 0.0
2016-Dec-01 04:33N 60°01' E 028°27'0 0.0
2016-Dec-01 03:23N 60°01' E 028°27'0 0.0
2016-Dec-01 02:31N 60°01' E 028°27'0 0.0
2016-Dec-01 01:26N 60°01' E 028°27'0 0.0
2016-Dec-01 00:23N 60°01' E 028°27'0 0.0
2016-Nov-30 23:31N 60°01' E 028°27'3 2.9
2016-Nov-30 22:33N 60°03' E 028°24'1312.9
2016-Nov-30 21:33N 60°09' E 028°01'1812.1
2016-Nov-30 20:05N 60°05' E 027°27'913.0
2016-Nov-30 19:21N 60°00' E 027°10'1012.1
2016-Nov-30 18:33N 59°59' E 026°51'1312.8
2016-Nov-30 17:30N 59°58' E 026°24'3913.0
2016-Nov-30 14:32N 59°48' E 025°10'1313.0
2016-Nov-30 13:33N 59°45' E 024°45'2613.1
2016-Nov-30 11:32N 59°38' E 023°55'1313.0
2016-Nov-30 10:33N 59°34' E 023°31'34812.8
2016-Nov-29 07:22N 55°39' E 015°32'1113.0
2016-Nov-29 06:33N 55°34' E 015°15'1313.1
2016-Nov-29 05:33N 55°28' E 014°55'1312.9
2016-Nov-29 04:33N 55°21' E 014°35'1312.9
2016-Nov-29 03:33N 55°11' E 014°21'1312.6
2016-Nov-29 02:33N 55°10' E 013°60'1913.3
2016-Nov-29 01:06N 55°11' E 013°26'1213.1
2016-Nov-29 00:11N 55°12' E 013°05'913.2
2016-Nov-28 23:30N 55°15' E 012°49'1010.9
2016-Nov-28 22:33N 55°23' E 012°39'1211.9
2016-Nov-28 21:34N 55°35' E 012°42'1111.4
2016-Nov-28 20:33N 55°46' E 012°42'1413.9
2016-Nov-28 19:33N 56°00' E 012°40'1312.8
2016-Nov-28 18:33N 56°10' E 012°24'6613.1
2016-Nov-28 13:33N 57°09' E 011°36'1414.1
2016-Nov-28 12:33N 57°22' E 011°26'1413.7
2016-Nov-28 11:33N 57°34' E 011°12'20610.3
2016-Nov-27 15:33N 55°16' E 006°34'1212.0
2016-Nov-27 14:33N 55°05' E 006°43'1312.6
2016-Nov-27 13:33N 54°54' E 006°53'1413.1
2016-Nov-27 12:27N 54°41' E 007°06'5312.8
2016-Nov-27 08:19N 54°01' E 008°05'1012.3
2016-Nov-27 07:33N 53°60' E 008°21'1212.2
2016-Nov-27 06:33N 53°55' E 008°40'1313.2
2016-Nov-27 05:33N 53°52' E 009°02'1111.2
2016-Nov-27 04:34N 53°50' E 009°20'1413.9
2016-Nov-27 03:33N 53°38' E 009°32'1212.2
2016-Nov-27 02:33N 53°33' E 009°50'5 4.6
2016-Nov-27 01:31N 53°30' E 009°57'0 0.0
2016-Nov-27 00:28N 53°30' E 009°57'0 0.0
2016-Nov-26 23:28N 53°30' E 009°57'0 0.0
2016-Nov-26 22:31N 53°30' E 009°57'0 0.0
2016-Nov-26 21:31N 53°30' E 009°57'0 0.0
2016-Nov-26 20:28N 53°30' E 009°57'0 0.0
2016-Nov-26 19:31N 53°30' E 009°57'0 0.0
2016-Nov-26 18:31N 53°30' E 009°57'0 0.0
2016-Nov-26 17:31N 53°30' E 009°57'0 0.0
2016-Nov-26 16:31N 53°30' E 009°57'0 0.0
2016-Nov-26 15:31N 53°30' E 009°57'0 0.0
2016-Nov-26 14:19N 53°30' E 009°57'0 0.0
2016-Nov-26 13:31N 53°30' E 009°57'  
Track history (hours):
 
Tides and Currents Weather Stations Pressure Air Temp Water Temp Dewpoint Dewpoint Depression Visibility Wind Speed Wind Dir Waves Ship Positions

Seacod

Last reported at 2016-Dec-06 13:24 UTC. Time now 2016-Dec-06 14:12 UTC.
Position N 55°35' E 015°03'.

Length 188 m; draft 9.5 m.

Type: Ship. MMSI: 218019000.

Date/timePositionNaut miles runAvg speedWind from/ knotsBaromVisibWave heightAir tempDewpointWater temp
2016-Dec-06 13:24N 55°35' E 015°03'36013.7
2016-Dec-05 11:08N 59°37' E 023°19'812.9
2016-Dec-05 10:32N 59°39' E 023°34'4112.4
2016-Dec-05 07:15N 59°49' E 024°52'812.1
2016-Dec-05 06:33N 59°51' E 025°08'1211.8
2016-Dec-05 05:33N 59°54' E 025°31'2511.6
2016-Dec-05 03:26N 59°59' E 026°19'1011.4
2016-Dec-05 02:33N 60°01' E 026°39'2510.8
2016-Dec-05 00:17N 60°07' E 027°27'811.5
2016-Dec-04 23:33N 60°11' E 027°42'1110.9
2016-Dec-04 22:33N 60°10' E 028°03'1211.7
2016-Dec-04 21:33N 60°08' E 028°26'1211.2
2016-Dec-04 20:30N 60°13' E 028°47'4 0.2
2016-Dec-03 21:33N 60°18' E 028°45'6 5.8
2016-Dec-03 20:32N 60°12' E 028°45'5 5.0
2016-Dec-03 19:33N 60°08' E 028°40'6 6.2
2016-Dec-03 18:33N 60°03' E 028°31'3 2.9
2016-Dec-03 17:31N 60°01' E 028°27'0 0.0
2016-Dec-03 16:26N 60°01' E 028°27'0 0.0
2016-Dec-03 15:28N 60°01' E 028°27'0 0.0
2016-Dec-03 14:29N 60°01' E 028°27'0 0.0
2016-Dec-03 13:31N 60°01' E 028°27'0 0.0
2016-Dec-03 12:33N 60°01' E 028°27'0 0.0
2016-Dec-03 11:27N 60°01' E 028°27'0 0.0
2016-Dec-03 10:18N 60°01' E 028°27'0 0.0
2016-Dec-03 09:33N 60°01' E 028°27'0 0.0
2016-Dec-03 08:26N 60°01' E 028°27'0 0.0
2016-Dec-03 07:26N 60°01' E 028°27'0 0.0
2016-Dec-03 06:26N 60°01' E 028°27'0 0.0
2016-Dec-03 05:31N 60°01' E 028°27'0 0.0
2016-Dec-03 04:24N 60°01' E 028°27'0 0.0
2016-Dec-03 03:24N 60°01' E 028°27'0 0.0
2016-Dec-03 02:25N 60°01' E 028°27'0 0.0
2016-Dec-03 01:23N 60°01' E 028°27'0 0.0
2016-Dec-03 00:32N 60°01' E 028°27'0 0.0
2016-Dec-02 23:32N 60°01' E 028°27'0 0.0
2016-Dec-02 22:31N 60°01' E 028°27'0 0.0
2016-Dec-02 21:28N 60°01' E 028°27'0 0.0
2016-Dec-02 20:32N 60°01' E 028°27'0 0.0
2016-Dec-02 19:33N 60°01' E 028°27'0 0.0
2016-Dec-02 18:31N 60°01' E 028°27'0 0.0
2016-Dec-02 17:31N 60°01' E 028°27'0 0.0
2016-Dec-02 16:31N 60°01' E 028°27'0 0.0
2016-Dec-02 15:31N 60°01' E 028°27'0 0.0
2016-Dec-02 14:33N 60°01' E 028°27'0 0.0
2016-Dec-02 13:28N 60°01' E 028°27'0 0.0
2016-Dec-02 12:26N 60°01' E 028°27'0 0.0
2016-Dec-02 11:27N 60°01' E 028°27'0 0.0
2016-Dec-02 10:27N 60°01' E 028°27'0 0.0
2016-Dec-02 09:25N 60°01' E 028°27'0 0.0
2016-Dec-02 08:30N 60°01' E 028°27'0 0.0
2016-Dec-02 07:23N 60°01' E 028°27'0 0.0
2016-Dec-02 06:30N 60°01' E 028°27'0 0.0
2016-Dec-02 05:29N 60°01' E 028°27'0 0.0
2016-Dec-02 04:32N 60°01' E 028°27'0 0.0
2016-Dec-02 03:25N 60°01' E 028°27'0 0.0
2016-Dec-02 02:27N 60°01' E 028°27'0 0.0
2016-Dec-02 01:27N 60°01' E 028°27'0 0.0
2016-Dec-02 00:24N 60°01' E 028°27'0 0.1
2016-Dec-01 23:33N 60°01' E 028°27'0 0.0
2016-Dec-01 22:33N 60°01' E 028°27'0 0.0
2016-Dec-01 21:32N 60°01' E 028°27'0 0.0
2016-Dec-01 20:32N 60°01' E 028°27'0 0.0
2016-Dec-01 19:23N 60°01' E 028°27'0 0.0
2016-Dec-01 18:33N 60°01' E 028°27'0 0.0
2016-Dec-01 17:19N 60°01' E 028°27'0 0.0
2016-Dec-01 16:29N 60°01' E 028°27'0 0.0
2016-Dec-01 15:33N 60°01' E 028°27'0 0.0
2016-Dec-01 14:33N 60°01' E 028°27'0 0.0
2016-Dec-01 13:27N 60°01' E 028°27'0 0.0
2016-Dec-01 12:31N 60°01' E 028°27'0 0.0
2016-Dec-01 11:31N 60°01' E 028°27'0 0.0
2016-Dec-01 10:25N 60°01' E 028°27'0 0.0
2016-Dec-01 09:31N 60°01' E 028°27'0 0.0
2016-Dec-01 08:26N 60°01' E 028°27'0 0.0
2016-Dec-01 07:26N 60°01' E 028°27'0 0.0
2016-Dec-01 06:26N 60°01' E 028°27'0 0.0
2016-Dec-01 05:33N 60°01' E 028°27'0 0.0
2016-Dec-01 04:33N 60°01' E 028°27'0 0.0
2016-Dec-01 03:23N 60°01' E 028°27'0 0.0
2016-Dec-01 02:31N 60°01' E 028°27'0 0.0
2016-Dec-01 01:26N 60°01' E 028°27'0 0.0
2016-Dec-01 00:23N 60°01' E 028°27'0 0.0
2016-Nov-30 23:31N 60°01' E 028°27'3 2.9
2016-Nov-30 22:33N 60°03' E 028°24'1312.9
2016-Nov-30 21:33N 60°09' E 028°01'1812.1
2016-Nov-30 20:05N 60°05' E 027°27'913.0
2016-Nov-30 19:21N 60°00' E 027°10'1012.1
2016-Nov-30 18:33N 59°59' E 026°51'1312.8
2016-Nov-30 17:30N 59°58' E 026°24'3913.0
2016-Nov-30 14:32N 59°48' E 025°10'1313.0
2016-Nov-30 13:33N 59°45' E 024°45'2613.1
2016-Nov-30 11:32N 59°38' E 023°55'1313.0
2016-Nov-30 10:33N 59°34' E 023°31'34812.8
2016-Nov-29 07:22N 55°39' E 015°32'1113.0
2016-Nov-29 06:33N 55°34' E 015°15'1313.1
2016-Nov-29 05:33N 55°28' E 014°55'1312.9
2016-Nov-29 04:33N 55°21' E 014°35'1312.9
2016-Nov-29 03:33N 55°11' E 014°21'1312.6
2016-Nov-29 02:33N 55°10' E 013°60'1913.3
2016-Nov-29 01:06N 55°11' E 013°26'1213.1
2016-Nov-29 00:11N 55°12' E 013°05'913.2
2016-Nov-28 23:30N 55°15' E 012°49'1010.9
2016-Nov-28 22:33N 55°23' E 012°39'1211.9
2016-Nov-28 21:34N 55°35' E 012°42'1111.4
2016-Nov-28 20:33N 55°46' E 012°42'1413.9
2016-Nov-28 19:33N 56°00' E 012°40'1312.8
2016-Nov-28 18:33N 56°10' E 012°24'6613.1
2016-Nov-28 13:33N 57°09' E 011°36'1414.1
2016-Nov-28 12:33N 57°22' E 011°26'1413.7
2016-Nov-28 11:33N 57°34' E 011°12'20610.3
2016-Nov-27 15:33N 55°16' E 006°34'1212.0
2016-Nov-27 14:33N 55°05' E 006°43'1312.6
2016-Nov-27 13:33N 54°54' E 006°53'1413.1
2016-Nov-27 12:27N 54°41' E 007°06'5312.8
2016-Nov-27 08:19N 54°01' E 008°05'1012.3
2016-Nov-27 07:33N 53°60' E 008°21'1212.2
2016-Nov-27 06:33N 53°55' E 008°40'1313.2
2016-Nov-27 05:33N 53°52' E 009°02'1111.2
2016-Nov-27 04:34N 53°50' E 009°20'1413.9
2016-Nov-27 03:33N 53°38' E 009°32'1212.2
2016-Nov-27 02:33N 53°33' E 009°50'5 4.6
2016-Nov-27 01:31N 53°30' E 009°57'0 0.0
2016-Nov-27 00:28N 53°30' E 009°57'0 0.0
2016-Nov-26 23:28N 53°30' E 009°57'0 0.0
2016-Nov-26 22:31N 53°30' E 009°57'0 0.0
2016-Nov-26 21:31N 53°30' E 009°57'0 0.0
2016-Nov-26 20:28N 53°30' E 009°57'0 0.0
2016-Nov-26 19:31N 53°30' E 009°57'0 0.0
2016-Nov-26 18:31N 53°30' E 009°57'0 0.0
2016-Nov-26 17:31N 53°30' E 009°57'0 0.0
2016-Nov-26 16:31N 53°30' E 009°57'0 0.0
2016-Nov-26 15:31N 53°30' E 009°57'0 0.0
2016-Nov-26 14:19N 53°30' E 009°57'0 0.0
2016-Nov-26 13:31N 53°30' E 009°57'  

Dump ship's entire track history